sensor_id;sensor_type;location;lat;lon;timestamp;pressure;altitude;pressure_sealevel;temperature
43802;BMP280;29429;51.074;13.764;2022-09-27T00:01:13;98262.50;;;13.45
43802;BMP280;29429;51.074;13.764;2022-09-27T00:03:41;98256.56;;;13.42
43802;BMP280;29429;51.074;13.764;2022-09-27T00:06:28;98251.78;;;13.45
43802;BMP280;29429;51.074;13.764;2022-09-27T00:08:56;98249.66;;;13.47
43802;BMP280;29429;51.074;13.764;2022-09-27T00:11:31;98241.63;;;13.47
43802;BMP280;29429;51.074;13.764;2022-09-27T00:13:59;98243.16;;;13.37
43802;BMP280;29429;51.074;13.764;2022-09-27T00:16:30;98227.09;;;13.37
43802;BMP280;29429;51.074;13.764;2022-09-27T00:19:00;98230.91;;;13.47
43802;BMP280;29429;51.074;13.764;2022-09-27T00:21:29;98224.72;;;13.46
43802;BMP280;29429;51.074;13.764;2022-09-27T00:23:57;98222.59;;;13.48
43802;BMP280;29429;51.074;13.764;2022-09-27T00:26:25;98217.75;;;13.45
43802;BMP280;29429;51.074;13.764;2022-09-27T00:28:53;98211.88;;;13.48
43802;BMP280;29429;51.074;13.764;2022-09-27T00:31:25;98208.97;;;13.50
43802;BMP280;29429;51.074;13.764;2022-09-27T00:33:58;98201.97;;;13.49
43802;BMP280;29429;51.074;13.764;2022-09-27T00:36:27;98205.19;;;13.51
43802;BMP280;29429;51.074;13.764;2022-09-27T00:38:55;98192.88;;;13.50
43802;BMP280;29429;51.074;13.764;2022-09-27T00:41:29;98200.94;;;13.55
43802;BMP280;29429;51.074;13.764;2022-09-27T00:44:00;98196.66;;;13.54
43802;BMP280;29429;51.074;13.764;2022-09-27T00:46:40;98187.03;;;13.53
43802;BMP280;29429;51.074;13.764;2022-09-27T00:49:36;98180.88;;;13.57
43802;BMP280;29429;51.074;13.764;2022-09-27T00:52:13;98182.47;;;13.58
43802;BMP280;29429;51.074;13.764;2022-09-27T00:54:45;98171.22;;;13.56
43802;BMP280;29429;51.074;13.764;2022-09-27T00:57:14;98154.88;;;13.53
43802;BMP280;29429;51.074;13.764;2022-09-27T00:59:52;98170.97;;;13.63
43802;BMP280;29429;51.074;13.764;2022-09-27T01:02:21;98160.25;;;13.63
43802;BMP280;29429;51.074;13.764;2022-09-27T01:04:49;98154.63;;;13.64
43802;BMP280;29429;51.074;13.764;2022-09-27T01:07:16;98143.38;;;13.67
43802;BMP280;29429;51.074;13.764;2022-09-27T01:09:44;98138.84;;;13.63
43802;BMP280;29429;51.074;13.764;2022-09-27T01:12:56;98147.94;;;13.72
43802;BMP280;29429;51.074;13.764;2022-09-27T01:24:30;98127.31;;;13.62
43802;BMP280;29429;51.074;13.764;2022-09-27T01:27:44;98131.84;;;13.62
43802;BMP280;29429;51.074;13.764;2022-09-27T01:33:58;98124.63;;;13.57
43802;BMP280;29429;51.074;13.764;2022-09-27T01:42:44;98101.84;;;13.55
43802;BMP280;29429;51.074;13.764;2022-09-27T01:45:41;98099.69;;;13.52
43802;BMP280;29429;51.074;13.764;2022-09-27T01:48:23;98083.63;;;13.47
43802;BMP280;29429;51.074;13.764;2022-09-27T01:51:13;98093.81;;;13.50
43802;BMP280;29429;51.074;13.764;2022-09-27T01:53:46;98083.63;;;13.52
43802;BMP280;29429;51.074;13.764;2022-09-27T01:56:39;98081.22;;;13.50
43802;BMP280;29429;51.074;13.764;2022-09-27T01:59:23;98089.28;;;13.55
43802;BMP280;29429;51.074;13.764;2022-09-27T02:02:08;98084.44;;;13.52
43802;BMP280;29429;51.074;13.764;2022-09-27T02:05:02;98082.00;;;13.56
43802;BMP280;29429;51.074;13.764;2022-09-27T02:07:40;98081.47;;;13.54
43802;BMP280;29429;51.074;13.764;2022-09-27T02:10:19;98081.47;;;13.54
43802;BMP280;29429;51.074;13.764;2022-09-27T02:13:06;98078.28;;;13.57
43802;BMP280;29429;51.074;13.764;2022-09-27T02:22:31;98070.78;;;13.54
43802;BMP280;29429;51.074;13.764;2022-09-27T02:28:21;98066.75;;;13.51
43802;BMP280;29429;51.074;13.764;2022-09-27T02:30:50;98053.88;;;13.48
43802;BMP280;29429;51.074;13.764;2022-09-27T02:33:30;98051.50;;;13.52
43802;BMP280;29429;51.074;13.764;2022-09-27T02:36:00;98052.84;;;13.54
43802;BMP280;29429;51.074;13.764;2022-09-27T02:38:28;98039.97;;;13.51
43802;BMP280;29429;51.074;13.764;2022-09-27T02:40:56;98034.34;;;13.48
43802;BMP280;29429;51.074;13.764;2022-09-27T02:43:28;98032.22;;;13.50
43802;BMP280;29429;51.074;13.764;2022-09-27T02:51:53;98018.81;;;13.45
43802;BMP280;29429;51.074;13.764;2022-09-27T02:54:59;98019.88;;;13.49
43802;BMP280;29429;51.074;13.764;2022-09-27T02:58:37;98017.72;;;13.46
43802;BMP280;29429;51.074;13.764;2022-09-27T03:05:03;98020.41;;;13.46
43802;BMP280;29429;51.074;13.764;2022-09-27T03:07:31;98012.38;;;13.46
43802;BMP280;29429;51.074;13.764;2022-09-27T03:09:59;98017.19;;;13.43
43802;BMP280;29429;51.074;13.764;2022-09-27T03:12:26;97999.78;;;13.41
43802;BMP280;29429;51.074;13.764;2022-09-27T03:14:57;98009.97;;;13.49
43802;BMP280;29429;51.074;13.764;2022-09-27T03:17:46;97999.00;;;13.46
43802;BMP280;29429;51.074;13.764;2022-09-27T03:20:36;98002.47;;;13.46
43802;BMP280;29429;51.074;13.764;2022-09-27T03:23:23;97991.25;;;13.49
43802;BMP280;29429;51.074;13.764;2022-09-27T03:25:50;98005.44;;;13.50
43802;BMP280;29429;51.074;13.764;2022-09-27T03:28:18;97989.38;;;13.50
43802;BMP280;29429;51.074;13.764;2022-09-27T03:30:46;97999.56;;;13.53
43802;BMP280;29429;51.074;13.764;2022-09-27T03:33:33;98001.66;;;13.51
43802;BMP280;29429;51.074;13.764;2022-09-27T03:36:06;97996.59;;;13.49
43802;BMP280;29429;51.074;13.764;2022-09-27T03:38:33;97989.91;;;13.47
43802;BMP280;29429;51.074;13.764;2022-09-27T03:41:00;98000.63;;;13.47
43802;BMP280;29429;51.074;13.764;2022-09-27T03:43:28;97993.09;;;13.49
43802;BMP280;29429;51.074;13.764;2022-09-27T03:45:59;97986.13;;;13.48
43802;BMP280;29429;51.074;13.764;2022-09-27T03:48:27;97990.97;;;13.46
43802;BMP280;29429;51.074;13.764;2022-09-27T03:50:56;97984.53;;;13.47
43802;BMP280;29429;51.074;13.764;2022-09-27T03:53:24;97964.72;;;13.37
43802;BMP280;29429;51.074;13.764;2022-09-27T03:55:51;97970.63;;;13.39
43802;BMP280;29429;51.074;13.764;2022-09-27T03:58:18;97962.84;;;13.38
43802;BMP280;29429;51.074;13.764;2022-09-27T04:00:45;97967.94;;;13.45
43802;BMP280;29429;51.074;13.764;2022-09-27T04:03:13;97969.28;;;13.42
43802;BMP280;29429;51.074;13.764;2022-09-27T04:05:49;97952.94;;;13.38
43802;BMP280;29429;51.074;13.764;2022-09-27T04:08:20;97952.13;;;13.38
43802;BMP280;29429;51.074;13.764;2022-09-27T04:10:52;97947.59;;;13.33
43802;BMP280;29429;51.074;13.764;2022-09-27T04:13:20;97946.78;;;13.33
43802;BMP280;29429;51.074;13.764;2022-09-27T04:15:53;97932.06;;;13.25
43802;BMP280;29429;51.074;13.764;2022-09-27T04:18:43;97943.81;;;13.29
43802;BMP280;29429;51.074;13.764;2022-09-27T04:21:41;97936.31;;;13.21
43802;BMP280;29429;51.074;13.764;2022-09-27T04:24:09;97938.47;;;13.24
43802;BMP280;29429;51.074;13.764;2022-09-27T04:26:41;97943.00;;;13.24
43802;BMP280;29429;51.074;13.764;2022-09-27T04:29:11;97925.88;;;13.20
43802;BMP280;29429;51.074;13.764;2022-09-27T04:31:45;97929.09;;;13.17
43802;BMP280;29429;51.074;13.764;2022-09-27T04:34:19;97933.66;;;13.21
43802;BMP280;29429;51.074;13.764;2022-09-27T04:37:12;97935.25;;;13.22
43802;BMP280;29429;51.074;13.764;2022-09-27T04:39:43;97934.44;;;13.22
43802;BMP280;29429;51.074;13.764;2022-09-27T04:42:10;97934.72;;;13.25
43802;BMP280;29429;51.074;13.764;2022-09-27T04:44:38;97942.22;;;13.23
43802;BMP280;29429;51.074;13.764;2022-09-27T04:47:05;97943.00;;;13.24
43802;BMP280;29429;51.074;13.764;2022-09-27T04:49:33;97925.59;;;13.16
43802;BMP280;29429;51.074;13.764;2022-09-27T04:52:01;97932.59;;;13.17
43802;BMP280;29429;51.074;13.764;2022-09-27T04:54:28;97940.63;;;13.22
43802;BMP280;29429;51.074;13.764;2022-09-27T04:57:08;97940.63;;;13.22
43802;BMP280;29429;51.074;13.764;2022-09-27T04:59:36;97924.78;;;13.16
43802;BMP280;29429;51.074;13.764;2022-09-27T05:02:03;97933.09;;;13.14
43802;BMP280;29429;51.074;13.764;2022-09-27T05:05:00;97934.72;;;13.15
43802;BMP280;29429;51.074;13.764;2022-09-27T05:07:34;97940.09;;;13.15
43802;BMP280;29429;51.074;13.764;2022-09-27T05:10:07;97926.69;;;13.10
43802;BMP280;29429;51.074;13.764;2022-09-27T05:12:35;97932.59;;;13.17
43802;BMP280;29429;51.074;13.764;2022-09-27T05:15:03;97932.06;;;13.20
43802;BMP280;29429;51.074;13.764;2022-09-27T05:17:52;97921.88;;;13.12
43802;BMP280;29429;51.074;13.764;2022-09-27T05:20:38;97926.41;;;13.12
43802;BMP280;29429;51.074;13.764;2022-09-27T05:23:10;97924.56;;;13.17
43802;BMP280;29429;51.074;13.764;2022-09-27T05:25:38;97929.09;;;13.22
43802;BMP280;29429;51.074;13.764;2022-09-27T05:28:05;97929.09;;;13.17
43802;BMP280;29429;51.074;13.764;2022-09-27T05:30:32;97919.72;;;13.09
43802;BMP280;29429;51.074;13.764;2022-09-27T05:33:06;97926.94;;;13.14
43802;BMP280;29429;51.074;13.764;2022-09-27T05:35:39;97928.84;;;13.18
43802;BMP280;29429;51.074;13.764;2022-09-27T05:38:11;97927.22;;;13.17
43802;BMP280;29429;51.074;13.764;2022-09-27T05:40:41;97926.16;;;13.18
43802;BMP280;29429;51.074;13.764;2022-09-27T05:43:10;97921.88;;;13.17
43802;BMP280;29429;51.074;13.764;2022-09-27T05:45:37;97928.28;;;13.26
43802;BMP280;29429;51.074;13.764;2022-09-27T05:48:05;97930.97;;;13.26
43802;BMP280;29429;51.074;13.764;2022-09-27T05:50:38;97932.06;;;13.30
43802;BMP280;29429;51.074;13.764;2022-09-27T05:53:06;97917.06;;;13.24
43802;BMP280;29429;51.074;13.764;2022-09-27T05:55:33;97924.03;;;13.30
43802;BMP280;29429;51.074;13.764;2022-09-27T05:58:04;97920.28;;;13.31
43802;BMP280;29429;51.074;13.764;2022-09-27T06:00:57;97928.03;;;13.33
43802;BMP280;29429;51.074;13.764;2022-09-27T06:03:44;97925.09;;;13.34
43802;BMP280;29429;51.074;13.764;2022-09-27T06:06:36;97927.50;;;13.36
43802;BMP280;29429;51.074;13.764;2022-09-27T06:09:04;97935.00;;;13.39
43802;BMP280;29429;51.074;13.764;2022-09-27T06:11:31;97919.19;;;13.37
43802;BMP280;29429;51.074;13.764;2022-09-27T06:13:58;97929.91;;;13.42
43802;BMP280;29429;51.074;13.764;2022-09-27T06:16:26;97932.06;;;13.46
43802;BMP280;29429;51.074;13.764;2022-09-27T06:18:53;97938.22;;;13.51
43802;BMP280;29429;51.074;13.764;2022-09-27T06:21:21;97924.81;;;13.51
43802;BMP280;29429;51.074;13.764;2022-09-27T06:23:54;97924.00;;;13.56
43802;BMP280;29429;51.074;13.764;2022-09-27T06:26:40;97934.47;;;13.57
43802;BMP280;29429;51.074;13.764;2022-09-27T06:29:33;97928.84;;;13.59
43802;BMP280;29429;51.074;13.764;2022-09-27T06:32:02;97936.59;;;13.65
43802;BMP280;29429;51.074;13.764;2022-09-27T06:34:39;97936.84;;;13.64
43802;BMP280;29429;51.074;13.764;2022-09-27T06:37:07;97929.38;;;13.66
43802;BMP280;29429;51.074;13.764;2022-09-27T06:39:34;97930.44;;;13.70
43802;BMP280;29429;51.074;13.764;2022-09-27T06:42:18;97925.06;;;13.70
43802;BMP280;29429;51.074;13.764;2022-09-27T06:45:11;97920.81;;;13.74
43802;BMP280;29429;51.074;13.764;2022-09-27T06:47:57;97922.13;;;13.81
43802;BMP280;29429;51.074;13.764;2022-09-27T06:50:52;97919.69;;;13.90
43802;BMP280;29429;51.074;13.764;2022-09-27T06:53:21;97932.28;;;13.99
43802;BMP280;29429;51.074;13.764;2022-09-27T06:55:49;97916.47;;;14.03
43802;BMP280;29429;51.074;13.764;2022-09-27T06:58:17;97912.16;;;14.07
43802;BMP280;29429;51.074;13.764;2022-09-27T07:01:29;97922.28;;;14.20
43802;BMP280;29429;51.074;13.764;2022-09-27T07:04:28;97921.72;;;14.28
43802;BMP280;29429;51.074;13.764;2022-09-27T07:06:58;97935.09;;;14.43
43802;BMP280;29429;51.074;13.764;2022-09-27T07:09:29;97928.66;;;14.49
43802;BMP280;29429;51.074;13.764;2022-09-27T07:11:56;97945.50;;;14.60
43802;BMP280;29429;51.074;13.764;2022-09-27T07:14:24;97949.00;;;14.60
43802;BMP280;29429;51.074;13.764;2022-09-27T07:16:54;97946.03;;;14.62
43802;BMP280;29429;51.074;13.764;2022-09-27T07:19:21;97942.03;;;14.59
43802;BMP280;29429;51.074;13.764;2022-09-27T07:21:50;97946.81;;;14.68
43802;BMP280;29429;51.074;13.764;2022-09-27T07:24:17;97939.88;;;14.67
43802;BMP280;29429;51.074;13.764;2022-09-27T07:26:47;97950.00;;;14.75
43802;BMP280;29429;51.074;13.764;2022-09-27T07:29:16;97948.38;;;14.79
43802;BMP280;29429;51.074;13.764;2022-09-27T07:31:44;97944.81;;;14.88
43802;BMP280;29429;51.074;13.764;2022-09-27T07:34:11;97938.91;;;14.91
43802;BMP280;29429;51.074;13.764;2022-09-27T07:36:38;97940.47;;;15.02
43802;BMP280;29429;51.074;13.764;2022-09-27T07:39:06;97945.78;;;15.07
43802;BMP280;29429;51.074;13.764;2022-09-27T07:41:33;97947.03;;;15.20
43802;BMP280;29429;51.074;13.764;2022-09-27T07:44:00;97953.97;;;15.31
43802;BMP280;29429;51.074;13.764;2022-09-27T07:46:30;97942.38;;;15.36
43802;BMP280;29429;51.074;13.764;2022-09-27T07:49:06;97936.44;;;15.39
43802;BMP280;29429;51.074;13.764;2022-09-27T07:51:49;97934.84;;;15.38
43802;BMP280;29429;51.074;13.764;2022-09-27T07:54:43;97942.88;;;15.43
43802;BMP280;29429;51.074;13.764;2022-09-27T07:57:23;97937.75;;;15.41
43802;BMP280;29429;51.074;13.764;2022-09-27T07:59:52;97936.13;;;15.45
43802;BMP280;29429;51.074;13.764;2022-09-27T08:02:21;97932.38;;;15.46
43802;BMP280;29429;51.074;13.764;2022-09-27T08:04:50;97938.50;;;15.52
43802;BMP280;29429;51.074;13.764;2022-09-27T08:07:18;97933.66;;;15.59
43802;BMP280;29429;51.074;13.764;2022-09-27T08:09:49;97929.28;;;15.63
43802;BMP280;29429;51.074;13.764;2022-09-27T08:12:16;97946.13;;;15.73
43802;BMP280;29429;51.074;13.764;2022-09-27T08:14:43;97940.44;;;15.80
43802;BMP280;29429;51.074;13.764;2022-09-27T08:17:15;97957.31;;;15.86
43802;BMP280;29429;51.074;13.764;2022-09-27T08:20:04;97947.09;;;15.88
43802;BMP280;29429;51.074;13.764;2022-09-27T08:22:41;97936.91;;;15.84
43802;BMP280;29429;51.074;13.764;2022-09-27T08:25:20;97942.53;;;15.88
43802;BMP280;29429;51.074;13.764;2022-09-27T08:28:08;97949.16;;;15.96
43802;BMP280;29429;51.074;13.764;2022-09-27T08:30:40;97945.09;;;15.98
43802;BMP280;29429;51.074;13.764;2022-09-27T08:33:07;97948.53;;;16.04
43802;BMP280;29429;51.074;13.764;2022-09-27T08:35:35;97945.00;;;16.08
43802;BMP280;29429;51.074;13.764;2022-09-27T08:38:03;97947.97;;;16.07
43802;BMP280;29429;51.074;13.764;2022-09-27T08:41:05;97952.44;;;16.16
43802;BMP280;29429;51.074;13.764;2022-09-27T08:47:04;97953.38;;;16.30
43802;BMP280;29429;51.074;13.764;2022-09-27T08:49:43;97955.72;;;16.37
43802;BMP280;29429;51.074;13.764;2022-09-27T08:52:22;97947.88;;;16.40
43802;BMP280;29429;51.074;13.764;2022-09-27T08:54:57;97958.63;;;16.40
43802;BMP280;29429;51.074;13.764;2022-09-27T08:57:27;97943.63;;;16.34
43802;BMP280;29429;51.074;13.764;2022-09-27T09:00:01;97950.28;;;16.42
43802;BMP280;29429;51.074;13.764;2022-09-27T09:02:28;97945.38;;;16.49
43802;BMP280;29429;51.074;13.764;2022-09-27T09:05:02;97947.66;;;16.61
43802;BMP280;29429;51.074;13.764;2022-09-27T09:10:48;97941.56;;;16.74
43802;BMP280;29429;51.074;13.764;2022-09-27T09:22:44;97942.38;;;16.74
43802;BMP280;29429;51.074;13.764;2022-09-27T09:25:28;97944.75;;;16.52
43802;BMP280;29429;51.074;13.764;2022-09-27T09:33:55;97965.66;;;16.13
43802;BMP280;29429;51.074;13.764;2022-09-27T09:36:38;97965.38;;;16.14
43802;BMP280;29429;51.074;13.764;2022-09-27T09:39:27;97959.88;;;16.01
43802;BMP280;29429;51.074;13.764;2022-09-27T09:47:50;97942.81;;;16.34
43802;BMP280;29429;51.074;13.764;2022-09-27T09:50:42;97937.69;;;16.37
43802;BMP280;29429;51.074;13.764;2022-09-27T09:56:05;97935.31;;;16.31
43802;BMP280;29429;51.074;13.764;2022-09-27T09:59:00;97948.63;;;16.22
43802;BMP280;29429;51.074;13.764;2022-09-27T10:01:41;97948.22;;;16.34
43802;BMP280;29429;51.074;13.764;2022-09-27T10:04:22;97942.25;;;16.37
43802;BMP280;29429;51.074;13.764;2022-09-27T10:06:57;97947.06;;;16.40
43802;BMP280;29429;51.074;13.764;2022-09-27T10:09:29;97941.38;;;16.41
43802;BMP280;29429;51.074;13.764;2022-09-27T10:12:14;97938.84;;;16.55
43802;BMP280;29429;51.074;13.764;2022-09-27T10:14:47;97944.25;;;16.50
43802;BMP280;29429;51.074;13.764;2022-09-27T10:17:20;97939.97;;;16.49
43802;BMP280;29429;51.074;13.764;2022-09-27T10:19:49;97945.13;;;16.45
43802;BMP280;29429;51.074;13.764;2022-09-27T10:22:35;97947.81;;;16.45
43802;BMP280;29429;51.074;13.764;2022-09-27T10:25:12;97945.00;;;16.32
43802;BMP280;29429;51.074;13.764;2022-09-27T10:28:04;97942.44;;;16.22
43802;BMP280;29429;51.074;13.764;2022-09-27T10:30:36;97944.09;;;16.18
43802;BMP280;29429;51.074;13.764;2022-09-27T10:33:16;97951.63;;;16.16
43802;BMP280;29429;51.074;13.764;2022-09-27T10:35:51;97945.56;;;16.05
43802;BMP280;29429;51.074;13.764;2022-09-27T10:38:35;97957.59;;;16.13
43802;BMP280;29429;51.074;13.764;2022-09-27T10:41:34;97958.16;;;16.10
43802;BMP280;29429;51.074;13.764;2022-09-27T10:46:57;97987.50;;;15.77
43802;BMP280;29429;51.074;13.764;2022-09-27T10:49:40;98007.47;;;15.66
43802;BMP280;29429;51.074;13.764;2022-09-27T10:52:41;98007.03;;;15.49
43802;BMP280;29429;51.074;13.764;2022-09-27T10:55:31;98004.28;;;15.15
43802;BMP280;29429;51.074;13.764;2022-09-27T10:58:05;98006.81;;;14.92
43802;BMP280;29429;51.074;13.764;2022-09-27T11:00:56;98019.94;;;14.98
43802;BMP280;29429;51.074;13.764;2022-09-27T11:03:31;98018.81;;;15.04
43802;BMP280;29429;51.074;13.764;2022-09-27T11:06:17;98012.06;;;15.12
43802;BMP280;29429;51.074;13.764;2022-09-27T11:08:44;98032.50;;;15.08
43802;BMP280;29429;51.074;13.764;2022-09-27T11:11:31;98031.41;;;15.14
43802;BMP280;29429;51.074;13.764;2022-09-27T11:14:03;98028.19;;;15.12
43802;BMP280;29429;51.074;13.764;2022-09-27T11:26:02;98044.06;;;15.57
43802;BMP280;29429;51.074;13.764;2022-09-27T11:29:00;98043.25;;;15.62
43802;BMP280;29429;51.074;13.764;2022-09-27T11:38:17;98054.97;;;15.76
43802;BMP280;29429;51.074;13.764;2022-09-27T11:41:39;98048.66;;;15.52
43802;BMP280;29429;51.074;13.764;2022-09-27T11:47:15;98047.63;;;15.48
43802;BMP280;29429;51.074;13.764;2022-09-27T11:50:15;98051.22;;;15.23
43802;BMP280;29429;51.074;13.764;2022-09-27T11:56:06;98056.19;;;14.96
43802;BMP280;29429;51.074;13.764;2022-09-27T12:05:13;98055.56;;;15.19
43802;BMP280;29429;51.074;13.764;2022-09-27T12:08:26;98043.56;;;15.55
43802;BMP280;29429;51.074;13.764;2022-09-27T12:14:05;98049.03;;;16.13
43802;BMP280;29429;51.074;13.764;2022-09-27T12:16:38;98048.34;;;16.26
43802;BMP280;29429;51.074;13.764;2022-09-27T12:19:21;98053.63;;;16.07
43802;BMP280;29429;51.074;13.764;2022-09-27T12:22:05;98068.88;;;15.88
43802;BMP280;29429;51.074;13.764;2022-09-27T12:24:38;98050.88;;;15.83
43802;BMP280;29429;51.074;13.764;2022-09-27T12:27:48;98057.78;;;15.95
43802;BMP280;29429;51.074;13.764;2022-09-27T12:30:20;98062.09;;;15.96
43802;BMP280;29429;51.074;13.764;2022-09-27T12:33:15;98056.09;;;16.04
43802;BMP280;29429;51.074;13.764;2022-09-27T12:35:51;98062.59;;;15.98
43802;BMP280;29429;51.074;13.764;2022-09-27T12:38:38;98056.19;;;15.89
43802;BMP280;29429;51.074;13.764;2022-09-27T12:41:13;98062.22;;;15.80
43802;BMP280;29429;51.074;13.764;2022-09-27T12:43:53;98073.19;;;15.84
43802;BMP280;29429;51.074;13.764;2022-09-27T12:47:00;98059.69;;;15.89
43802;BMP280;29429;51.074;13.764;2022-09-27T12:50:01;98058.88;;;15.94
43802;BMP280;29429;51.074;13.764;2022-09-27T12:52:36;98054.88;;;15.86
43802;BMP280;29429;51.074;13.764;2022-09-27T12:55:50;98053.88;;;15.77
43802;BMP280;29429;51.074;13.764;2022-09-27T13:02:03;98050.00;;;15.54
43802;BMP280;29429;51.074;13.764;2022-09-27T13:12:58;98063.00;;;15.32
43802;BMP280;29429;51.074;13.764;2022-09-27T13:15:36;98059.78;;;15.35
43802;BMP280;29429;51.074;13.764;2022-09-27T13:18:58;98065.34;;;15.44
43802;BMP280;29429;51.074;13.764;2022-09-27T13:21:54;98063.44;;;15.59
43802;BMP280;29429;51.074;13.764;2022-09-27T13:24:46;98064.47;;;15.63
43802;BMP280;29429;51.074;13.764;2022-09-27T13:27:53;98068.47;;;15.66
43802;BMP280;29429;51.074;13.764;2022-09-27T13:38:34;98079.84;;;15.53
43802;BMP280;29429;51.074;13.764;2022-09-27T13:41:18;98082.16;;;15.69
43802;BMP280;29429;51.074;13.764;2022-09-27T13:49:44;98082.31;;;15.88
43802;BMP280;29429;51.074;13.764;2022-09-27T13:52:36;98092.44;;;16.01
43802;BMP280;29429;51.074;13.764;2022-09-27T13:55:40;98087.47;;;16.13
43802;BMP280;29429;51.074;13.764;2022-09-27T14:00:59;98091.03;;;16.37
43802;BMP280;29429;51.074;13.764;2022-09-27T14:03:49;98100.94;;;16.42
43802;BMP280;29429;51.074;13.764;2022-09-27T14:06:30;98095.81;;;16.45
43802;BMP280;29429;51.074;13.764;2022-09-27T14:09:06;98107.44;;;16.41
43802;BMP280;29429;51.074;13.764;2022-09-27T14:11:48;98114.06;;;16.20
43802;BMP280;29429;51.074;13.764;2022-09-27T14:14:23;98106.84;;;16.10
43802;BMP280;29429;51.074;13.764;2022-09-27T14:16:58;98109.03;;;16.08
43802;BMP280;29429;51.074;13.764;2022-09-27T14:19:27;98112.28;;;16.05
43802;BMP280;29429;51.074;13.764;2022-09-27T14:21:56;98116.09;;;15.99
43802;BMP280;29429;51.074;13.764;2022-09-27T14:24:42;98121.19;;;16.01
43802;BMP280;29429;51.074;13.764;2022-09-27T14:30:35;98138.38;;;15.61
43802;BMP280;29429;51.074;13.764;2022-09-27T14:33:29;98139.53;;;15.40
43802;BMP280;29429;51.074;13.764;2022-09-27T14:36:29;98144.66;;;15.26
43802;BMP280;29429;51.074;13.764;2022-09-27T14:39:32;98139.38;;;15.11
43802;BMP280;29429;51.074;13.764;2022-09-27T14:42:27;98156.00;;;15.08
43802;BMP280;29429;51.074;13.764;2022-09-27T14:45:00;98145.03;;;14.94
43802;BMP280;29429;51.074;13.764;2022-09-27T14:47:29;98148.00;;;14.83
43802;BMP280;29429;51.074;13.764;2022-09-27T14:50:01;98159.78;;;14.97
43802;BMP280;29429;51.074;13.764;2022-09-27T14:52:38;98164.09;;;15.03
43802;BMP280;29429;51.074;13.764;2022-09-27T14:55:18;98151.47;;;14.93
43802;BMP280;29429;51.074;13.764;2022-09-27T14:57:59;98164.63;;;15.00
43802;BMP280;29429;51.074;13.764;2022-09-27T15:00:31;98178.06;;;14.95
43802;BMP280;29429;51.074;13.764;2022-09-27T15:03:05;98170.53;;;14.97
43802;BMP280;29429;51.074;13.764;2022-09-27T15:05:40;98162.47;;;14.97
43802;BMP280;29429;51.074;13.764;2022-09-27T15:08:11;98161.41;;;14.98
43802;BMP280;29429;51.074;13.764;2022-09-27T15:10:41;98153.88;;;15.00
43802;BMP280;29429;51.074;13.764;2022-09-27T15:13:16;98163.56;;;15.01
43802;BMP280;29429;51.074;13.764;2022-09-27T15:15:46;98164.09;;;14.98
43802;BMP280;29429;51.074;13.764;2022-09-27T15:21:05;98169.22;;;14.79
43802;BMP280;29429;51.074;13.764;2022-09-27T15:23:40;98168.44;;;14.79
43802;BMP280;29429;51.074;13.764;2022-09-27T15:28:51;98166.00;;;14.67
43802;BMP280;29429;51.074;13.764;2022-09-27T15:31:35;98158.78;;;14.62
43802;BMP280;29429;51.074;13.764;2022-09-27T15:34:03;98153.44;;;14.57
43802;BMP280;29429;51.074;13.764;2022-09-27T15:36:49;98166.81;;;14.62
43802;BMP280;29429;51.074;13.764;2022-09-27T15:39:37;98159.34;;;14.44
43802;BMP280;29429;51.074;13.764;2022-09-27T15:52:49;98189.25;;;13.91
43802;BMP280;29429;51.074;13.764;2022-09-27T15:55:20;98187.09;;;13.83
43802;BMP280;29429;51.074;13.764;2022-09-27T15:57:58;98195.16;;;13.88
43802;BMP280;29429;51.074;13.764;2022-09-27T16:00:28;98192.47;;;13.83
43802;BMP280;29429;51.074;13.764;2022-09-27T16:02:56;98194.63;;;13.86
43802;BMP280;29429;51.074;13.764;2022-09-27T16:05:23;98197.00;;;13.82
43802;BMP280;29429;51.074;13.764;2022-09-27T16:07:50;98199.44;;;13.84
43802;BMP280;29429;51.074;13.764;2022-09-27T16:10:21;98208.56;;;13.93
43802;BMP280;29429;51.074;13.764;2022-09-27T16:12:49;98206.38;;;13.85
43802;BMP280;29429;51.074;13.764;2022-09-27T16:15:17;98209.88;;;13.80
43802;BMP280;29429;51.074;13.764;2022-09-27T16:17:44;98219.22;;;13.73
43802;BMP280;29429;51.074;13.764;2022-09-27T16:20:21;98221.38;;;13.71
43802;BMP280;29429;51.074;13.764;2022-09-27T16:22:51;98235.53;;;13.66
43802;BMP280;29429;51.074;13.764;2022-09-27T16:25:20;98224.00;;;13.61
43802;BMP280;29429;51.074;13.764;2022-09-27T16:27:48;98235.81;;;13.65
43802;BMP280;29429;51.074;13.764;2022-09-27T16:30:16;98227.72;;;13.55
43802;BMP280;29429;51.074;13.764;2022-09-27T16:32:45;98231.50;;;13.64
43802;BMP280;29429;51.074;13.764;2022-09-27T16:35:15;98231.75;;;13.57
43802;BMP280;29429;51.074;13.764;2022-09-27T16:37:43;98225.56;;;13.52
43802;BMP280;29429;51.074;13.764;2022-09-27T16:40:11;98230.63;;;13.48
43802;BMP280;29429;51.074;13.764;2022-09-27T16:42:39;98236.50;;;13.45
43802;BMP280;29429;51.074;13.764;2022-09-27T16:45:08;98239.72;;;13.42
43802;BMP280;29429;51.074;13.764;2022-09-27T16:47:39;98230.84;;;13.36
43802;BMP280;29429;51.074;13.764;2022-09-27T16:50:06;98236.75;;;13.38
43802;BMP280;29429;51.074;13.764;2022-09-27T16:52:53;98231.91;;;13.35
43802;BMP280;29429;51.074;13.764;2022-09-27T16:55:21;98238.59;;;13.33
43802;BMP280;29429;51.074;13.764;2022-09-27T16:57:51;98239.06;;;13.25
43802;BMP280;29429;51.074;13.764;2022-09-27T17:00:18;98230.19;;;13.14
43802;BMP280;29429;51.074;13.764;2022-09-27T17:02:48;98245.69;;;13.12
43802;BMP280;29429;51.074;13.764;2022-09-27T17:05:15;98240.78;;;12.99
43802;BMP280;29429;51.074;13.764;2022-09-27T17:07:43;98250.66;;;12.99
43802;BMP280;29429;51.074;13.764;2022-09-27T17:10:10;98250.34;;;12.95
43802;BMP280;29429;51.074;13.764;2022-09-27T17:12:37;98251.41;;;12.89
43802;BMP280;29429;51.074;13.764;2022-09-27T17:15:05;98254.09;;;12.89
43802;BMP280;29429;51.074;13.764;2022-09-27T17:17:32;98245.75;;;12.86
43802;BMP280;29429;51.074;13.764;2022-09-27T17:19:59;98251.03;;;12.75
43802;BMP280;29429;51.074;13.764;2022-09-27T17:22:26;98252.53;;;12.66